Smithers, Smithers Airport (CYYD)

NameSmithers Airport
CitySmithers
CountryCanada
ICAOCYYD
IATAYYD
Altitude523 m
CoordinatesGoogle Map
Live Air TrafficLiveATC.net
METARCYYD 180100Z 14007KT 20SM VCSH SCT025 OVC040 M04/M09 A2966 RMK SC3SC5 SLP068
2019-01-18 01:00:00 Wind: Southeast (140°) 3.6 m/s - Visibility: 32186.8 m - Weather: Vicinity Showers - Temperature: -4 °C - Dew point: -9 °C - Humidity: 68.5% - Pressure: 1004.4 hPa
Statistics

The table below shows the detailed information of all flights to/from Smithers, Smithers Airport (CYYD).